This is the latest recevied weather packets stored in our database for station/object CE4TQY-10. If no packets are shown the sender has not sent any weather packets the latest 10 day(s).
| Time | Temp. | Humidity | Pressure | Rain* | Wind** | Luminosity | Snow |
|---|---|---|---|---|---|---|---|
| 1777868356 | 16.11° C | 47% | 1020.9 hPa | - | - | - | - |
| 1777867455 | 16.11° C | 46% | 1020.6 hPa | - | - | - | - |
| 1777866554 | 16.11° C | 47% | 1020.7 hPa | - | - | - | - |
| 1777843130 | 22.22° C | 27% | 1019.5 hPa | - | - | - | - |
| 1777842229 | 22.22° C | 30% | 1019.3 hPa | - | - | - | - |
| 1777839526 | 22.22° C | 31% | 1019.4 hPa | - | - | - | - |
| 1777833219 | 23.89° C | 27% | 1019 hPa | - | - | - | - |
| 1777831418 | 23.89° C | 30% | 1019.2 hPa | - | - | - | - |
| 1777830517 | 24.44° C | 31% | 1019.3 hPa | - | - | - | - |
| 1777825111 | 23.89° C | 34% | 1020.4 hPa | - | - | - | - |
| 1777821507 | 28.89° C | 28% | 1020.9 hPa | - | - | - | - |
| 1777817904 | 23.89° C | 35% | 1020.9 hPa | - | - | - | - |
| 1777811598 | 18.33° C | 47% | 1020.6 hPa | - | - | - | - |
| 1777809796 | 12.22° C | 58% | 1020.1 hPa | - | - | - | - |
| 1777808895 | 11.67° C | 59% | 1020.1 hPa | - | - | - | - |
| 1777807093 | 10.56° C | 64% | 1019.6 hPa | - | - | - | - |
| 1777802588 | 11.11° C | 64% | 1019.8 hPa | - | - | - | - |
| 1777801687 | 11.67° C | 61% | 1019.7 hPa | - | - | - | - |
| 1777800786 | 12.22° C | 59% | 1019.7 hPa | - | - | - | - |
| 1777799885 | 11.67° C | 56% | 1019.5 hPa | - | - | - | - |
| 1777798984 | 12.22° C | 54% | 1019.3 hPa | - | - | - | - |
| 1777797182 | 11.67° C | 62% | 1019.1 hPa | - | - | - | - |
| 1777796281 | 12.22° C | 62% | 1019.4 hPa | - | - | - | - |
| 1777795381 | 11.67° C | 60% | 1019.6 hPa | - | - | - | - |
| 1777794480 | 12.22° C | 58% | 1019.8 hPa | - | - | - | - |
* Rain since midnight (hover to see other rain measurements)
** Current wind speed in m/s (hover to see current wind gust speed)